sensor_id;sensor_type;location;lat;lon;timestamp;temperature;humidity
2749;DHT22;1382;52.142;11.618;2022-11-20T00:00:39;3.00;50.90
2749;DHT22;1382;52.142;11.618;2022-11-20T00:03:06;3.00;51.50
2749;DHT22;1382;52.142;11.618;2022-11-20T00:05:33;3.00;50.90
2749;DHT22;1382;52.142;11.618;2022-11-20T00:08:00;3.00;50.80
2749;DHT22;1382;52.142;11.618;2022-11-20T00:10:26;3.10;50.90
2749;DHT22;1382;52.142;11.618;2022-11-20T00:12:53;3.10;51.60
2749;DHT22;1382;52.142;11.618;2022-11-20T00:15:20;3.10;51.00
2749;DHT22;1382;52.142;11.618;2022-11-20T00:17:48;2.90;50.90
2749;DHT22;1382;52.142;11.618;2022-11-20T00:20:15;3.10;51.10
2749;DHT22;1382;52.142;11.618;2022-11-20T00:22:42;3.10;51.00
2749;DHT22;1382;52.142;11.618;2022-11-20T00:25:08;3.10;51.10
2749;DHT22;1382;52.142;11.618;2022-11-20T00:27:35;3.10;51.10
2749;DHT22;1382;52.142;11.618;2022-11-20T00:30:02;3.10;51.00
2749;DHT22;1382;52.142;11.618;2022-11-20T00:32:30;3.10;51.10
2749;DHT22;1382;52.142;11.618;2022-11-20T00:34:58;3.10;51.10
2749;DHT22;1382;52.142;11.618;2022-11-20T00:37:24;3.20;51.10
2749;DHT22;1382;52.142;11.618;2022-11-20T00:39:51;3.20;51.10
2749;DHT22;1382;52.142;11.618;2022-11-20T00:42:18;3.20;51.00
2749;DHT22;1382;52.142;11.618;2022-11-20T00:44:45;3.20;51.00
2749;DHT22;1382;52.142;11.618;2022-11-20T00:47:11;3.20;50.90
2749;DHT22;1382;52.142;11.618;2022-11-20T00:49:38;3.20;50.90
2749;DHT22;1382;52.142;11.618;2022-11-20T00:52:06;3.20;51.00
2749;DHT22;1382;52.142;11.618;2022-11-20T00:54:33;3.20;51.00
2749;DHT22;1382;52.142;11.618;2022-11-20T00:57:00;3.20;50.90
2749;DHT22;1382;52.142;11.618;2022-11-20T00:59:27;3.10;50.80
2749;DHT22;1382;52.142;11.618;2022-11-20T01:01:54;3.20;50.90
2749;DHT22;1382;52.142;11.618;2022-11-20T01:04:20;3.20;50.90
2749;DHT22;1382;52.142;11.618;2022-11-20T01:06:47;3.10;50.70
2749;DHT22;1382;52.142;11.618;2022-11-20T01:09:15;3.10;50.80
2749;DHT22;1382;52.142;11.618;2022-11-20T01:11:43;3.10;50.80
2749;DHT22;1382;52.142;11.618;2022-11-20T01:14:12;3.10;50.90
2749;DHT22;1382;52.142;11.618;2022-11-20T01:16:41;3.10;50.80
2749;DHT22;1382;52.142;11.618;2022-11-20T01:19:11;3.10;50.80
2749;DHT22;1382;52.142;11.618;2022-11-20T01:21:45;3.10;50.70
2749;DHT22;1382;52.142;11.618;2022-11-20T01:24:15;3.10;50.70
2749;DHT22;1382;52.142;11.618;2022-11-20T01:26:43;3.10;50.70
2749;DHT22;1382;52.142;11.618;2022-11-20T01:29:14;3.10;50.80
2749;DHT22;1382;52.142;11.618;2022-11-20T01:31:42;3.10;50.80
2749;DHT22;1382;52.142;11.618;2022-11-20T01:34:11;3.10;50.70
2749;DHT22;1382;52.142;11.618;2022-11-20T01:36:39;3.10;50.80
2749;DHT22;1382;52.142;11.618;2022-11-20T01:39:10;3.10;50.80
2749;DHT22;1382;52.142;11.618;2022-11-20T01:41:39;3.10;50.70
2749;DHT22;1382;52.142;11.618;2022-11-20T01:44:05;3.10;50.80
2749;DHT22;1382;52.142;11.618;2022-11-20T01:46:33;3.10;50.80
2749;DHT22;1382;52.142;11.618;2022-11-20T01:49:05;3.10;50.80
2749;DHT22;1382;52.142;11.618;2022-11-20T01:51:38;3.10;50.80
2749;DHT22;1382;52.142;11.618;2022-11-20T01:54:09;3.10;50.90
2749;DHT22;1382;52.142;11.618;2022-11-20T01:56:41;3.10;50.80
2749;DHT22;1382;52.142;11.618;2022-11-20T01:59:10;3.10;50.80
2749;DHT22;1382;52.142;11.618;2022-11-20T02:01:38;3.10;50.80
2749;DHT22;1382;52.142;11.618;2022-11-20T02:04:06;3.10;50.90
2749;DHT22;1382;52.142;11.618;2022-11-20T02:06:37;3.10;51.60
2749;DHT22;1382;52.142;11.618;2022-11-20T02:09:05;3.10;50.90
2749;DHT22;1382;52.142;11.618;2022-11-20T02:11:32;3.10;51.00
2749;DHT22;1382;52.142;11.618;2022-11-20T02:14:00;3.10;50.90
2749;DHT22;1382;52.142;11.618;2022-11-20T02:16:29;3.10;50.90
2749;DHT22;1382;52.142;11.618;2022-11-20T02:18:59;3.10;51.00
2749;DHT22;1382;52.142;11.618;2022-11-20T02:21:33;3.10;51.10
2749;DHT22;1382;52.142;11.618;2022-11-20T02:24:08;3.10;51.00
2749;DHT22;1382;52.142;11.618;2022-11-20T02:26:41;3.10;51.10
2749;DHT22;1382;52.142;11.618;2022-11-20T02:29:09;3.10;51.00
2749;DHT22;1382;52.142;11.618;2022-11-20T02:31:41;3.10;50.90
2749;DHT22;1382;52.142;11.618;2022-11-20T02:34:08;3.10;51.00
2749;DHT22;1382;52.142;11.618;2022-11-20T02:36:36;3.10;50.90
2749;DHT22;1382;52.142;11.618;2022-11-20T02:39:06;3.10;51.20
2749;DHT22;1382;52.142;11.618;2022-11-20T02:41:35;3.10;51.10
2749;DHT22;1382;52.142;11.618;2022-11-20T02:44:03;3.10;51.10
2749;DHT22;1382;52.142;11.618;2022-11-20T02:46:30;3.10;51.00
2749;DHT22;1382;52.142;11.618;2022-11-20T02:48:57;3.10;51.20
2749;DHT22;1382;52.142;11.618;2022-11-20T02:51:24;3.20;51.10
2749;DHT22;1382;52.142;11.618;2022-11-20T02:53:51;3.10;51.00
2749;DHT22;1382;52.142;11.618;2022-11-20T02:56:19;3.20;51.00
2749;DHT22;1382;52.142;11.618;2022-11-20T02:58:46;3.20;51.10
2749;DHT22;1382;52.142;11.618;2022-11-20T03:01:13;3.20;51.10
2749;DHT22;1382;52.142;11.618;2022-11-20T03:03:40;3.20;51.10
2749;DHT22;1382;52.142;11.618;2022-11-20T03:06:07;3.20;51.10
2749;DHT22;1382;52.142;11.618;2022-11-20T03:08:34;3.20;51.20
2749;DHT22;1382;52.142;11.618;2022-11-20T03:11:03;3.20;51.20
2749;DHT22;1382;52.142;11.618;2022-11-20T03:13:31;3.20;51.20
2749;DHT22;1382;52.142;11.618;2022-11-20T03:15:58;3.20;51.20
2749;DHT22;1382;52.142;11.618;2022-11-20T03:18:28;3.20;51.10
2749;DHT22;1382;52.142;11.618;2022-11-20T03:20:57;3.30;51.20
2749;DHT22;1382;52.142;11.618;2022-11-20T03:23:24;3.20;51.10
2749;DHT22;1382;52.142;11.618;2022-11-20T03:25:51;3.20;51.00
2749;DHT22;1382;52.142;11.618;2022-11-20T03:28:18;3.20;50.90
2749;DHT22;1382;52.142;11.618;2022-11-20T03:30:46;3.20;50.90
2749;DHT22;1382;52.142;11.618;2022-11-20T03:33:12;3.20;51.00
2749;DHT22;1382;52.142;11.618;2022-11-20T03:35:39;3.20;50.90
2749;DHT22;1382;52.142;11.618;2022-11-20T03:38:06;3.20;51.10
2749;DHT22;1382;52.142;11.618;2022-11-20T03:40:34;3.20;51.80
2749;DHT22;1382;52.142;11.618;2022-11-20T03:43:00;3.30;51.30
2749;DHT22;1382;52.142;11.618;2022-11-20T03:45:27;3.30;51.40
2749;DHT22;1382;52.142;11.618;2022-11-20T03:47:55;3.30;51.30
2749;DHT22;1382;52.142;11.618;2022-11-20T03:50:22;3.20;51.30
2749;DHT22;1382;52.142;11.618;2022-11-20T03:52:49;3.30;51.20
2749;DHT22;1382;52.142;11.618;2022-11-20T03:55:15;3.30;51.10
2749;DHT22;1382;52.142;11.618;2022-11-20T03:57:42;3.30;51.10
2749;DHT22;1382;52.142;11.618;2022-11-20T04:00:10;3.30;51.10
2749;DHT22;1382;52.142;11.618;2022-11-20T04:02:37;3.30;50.90
2749;DHT22;1382;52.142;11.618;2022-11-20T04:05:06;3.30;50.90
2749;DHT22;1382;52.142;11.618;2022-11-20T04:07:34;3.30;50.80
2749;DHT22;1382;52.142;11.618;2022-11-20T04:10:00;3.30;50.80
2749;DHT22;1382;52.142;11.618;2022-11-20T04:12:27;3.30;50.80
2749;DHT22;1382;52.142;11.618;2022-11-20T04:14:57;3.20;50.60
2749;DHT22;1382;52.142;11.618;2022-11-20T04:17:24;3.20;50.60
2749;DHT22;1382;52.142;11.618;2022-11-20T04:19:51;3.20;50.60
2749;DHT22;1382;52.142;11.618;2022-11-20T04:22:19;3.20;50.60
2749;DHT22;1382;52.142;11.618;2022-11-20T04:24:46;3.20;50.50
2749;DHT22;1382;52.142;11.618;2022-11-20T04:27:12;3.20;50.40
2749;DHT22;1382;52.142;11.618;2022-11-20T04:29:39;3.20;50.40
2749;DHT22;1382;52.142;11.618;2022-11-20T04:32:06;3.20;50.30
2749;DHT22;1382;52.142;11.618;2022-11-20T04:34:33;3.20;50.30
2749;DHT22;1382;52.142;11.618;2022-11-20T04:37:00;3.20;50.30
2749;DHT22;1382;52.142;11.618;2022-11-20T04:39:28;3.20;50.40
2749;DHT22;1382;52.142;11.618;2022-11-20T04:41:55;3.20;50.50
2749;DHT22;1382;52.142;11.618;2022-11-20T04:44:21;3.20;50.40
2749;DHT22;1382;52.142;11.618;2022-11-20T04:46:48;3.20;50.50
2749;DHT22;1382;52.142;11.618;2022-11-20T04:49:15;3.20;50.50
2749;DHT22;1382;52.142;11.618;2022-11-20T04:51:42;3.20;50.40
2749;DHT22;1382;52.142;11.618;2022-11-20T04:54:09;3.20;50.40
2749;DHT22;1382;52.142;11.618;2022-11-20T04:56:38;3.20;50.50
2749;DHT22;1382;52.142;11.618;2022-11-20T04:59:05;3.20;50.40
2749;DHT22;1382;52.142;11.618;2022-11-20T05:01:32;3.20;50.40
2749;DHT22;1382;52.142;11.618;2022-11-20T05:03:59;3.20;50.40
2749;DHT22;1382;52.142;11.618;2022-11-20T05:06:26;3.20;50.40
2749;DHT22;1382;52.142;11.618;2022-11-20T05:08:52;3.20;50.40
2749;DHT22;1382;52.142;11.618;2022-11-20T05:11:20;3.10;50.40
2749;DHT22;1382;52.142;11.618;2022-11-20T05:13:49;3.10;50.30
2749;DHT22;1382;52.142;11.618;2022-11-20T05:16:17;3.10;50.30
2749;DHT22;1382;52.142;11.618;2022-11-20T05:18:45;3.10;50.30
2749;DHT22;1382;52.142;11.618;2022-11-20T05:21:13;3.10;50.30
2749;DHT22;1382;52.142;11.618;2022-11-20T05:23:40;3.10;50.30
2749;DHT22;1382;52.142;11.618;2022-11-20T05:26:12;3.10;50.30
2749;DHT22;1382;52.142;11.618;2022-11-20T05:28:38;3.10;50.30
2749;DHT22;1382;52.142;11.618;2022-11-20T05:31:08;3.10;50.30
2749;DHT22;1382;52.142;11.618;2022-11-20T05:33:36;3.10;50.40
2749;DHT22;1382;52.142;11.618;2022-11-20T05:36:03;3.10;50.30
2749;DHT22;1382;52.142;11.618;2022-11-20T05:38:31;3.10;50.30
2749;DHT22;1382;52.142;11.618;2022-11-20T05:41:03;3.10;50.30
2749;DHT22;1382;52.142;11.618;2022-11-20T05:43:32;3.10;50.30
2749;DHT22;1382;52.142;11.618;2022-11-20T05:45:59;3.10;50.30
2749;DHT22;1382;52.142;11.618;2022-11-20T05:48:27;3.10;50.30
2749;DHT22;1382;52.142;11.618;2022-11-20T05:50:53;3.10;50.30
2749;DHT22;1382;52.142;11.618;2022-11-20T05:53:20;3.10;50.30
2749;DHT22;1382;52.142;11.618;2022-11-20T05:55:56;3.10;50.30
2749;DHT22;1382;52.142;11.618;2022-11-20T05:58:22;3.10;50.20
2749;DHT22;1382;52.142;11.618;2022-11-20T06:00:49;3.00;50.10
2749;DHT22;1382;52.142;11.618;2022-11-20T06:03:16;3.00;50.10
2749;DHT22;1382;52.142;11.618;2022-11-20T06:05:44;3.00;50.00
2749;DHT22;1382;52.142;11.618;2022-11-20T06:08:11;3.00;50.10
2749;DHT22;1382;52.142;11.618;2022-11-20T06:10:37;3.00;50.10
2749;DHT22;1382;52.142;11.618;2022-11-20T06:13:04;3.00;50.10
2749;DHT22;1382;52.142;11.618;2022-11-20T06:15:31;3.00;50.00
2749;DHT22;1382;52.142;11.618;2022-11-20T06:17:58;3.00;50.00
2749;DHT22;1382;52.142;11.618;2022-11-20T06:20:24;2.90;49.90
2749;DHT22;1382;52.142;11.618;2022-11-20T06:22:52;2.90;50.30
2749;DHT22;1382;52.142;11.618;2022-11-20T06:25:19;2.90;49.90
2749;DHT22;1382;52.142;11.618;2022-11-20T06:27:46;2.90;49.90
2749;DHT22;1382;52.142;11.618;2022-11-20T06:30:13;2.90;49.90
2749;DHT22;1382;52.142;11.618;2022-11-20T06:32:39;2.90;49.90
2749;DHT22;1382;52.142;11.618;2022-11-20T06:35:07;2.80;49.80
2749;DHT22;1382;52.142;11.618;2022-11-20T06:37:34;2.80;49.80
2749;DHT22;1382;52.142;11.618;2022-11-20T06:40:03;2.80;49.80
2749;DHT22;1382;52.142;11.618;2022-11-20T06:42:29;2.80;49.70
2749;DHT22;1382;52.142;11.618;2022-11-20T06:44:56;2.70;49.70
2749;DHT22;1382;52.142;11.618;2022-11-20T06:47:23;2.80;49.80
2749;DHT22;1382;52.142;11.618;2022-11-20T06:49:49;2.70;49.70
2749;DHT22;1382;52.142;11.618;2022-11-20T06:52:16;2.70;49.70
2749;DHT22;1382;52.142;11.618;2022-11-20T06:54:43;2.70;49.70
2749;DHT22;1382;52.142;11.618;2022-11-20T06:57:11;2.70;49.80
2749;DHT22;1382;52.142;11.618;2022-11-20T06:59:38;2.60;49.70
2749;DHT22;1382;52.142;11.618;2022-11-20T07:02:04;2.60;49.70
2749;DHT22;1382;52.142;11.618;2022-11-20T07:04:31;2.60;49.70
2749;DHT22;1382;52.142;11.618;2022-11-20T07:06:58;2.60;49.80
2749;DHT22;1382;52.142;11.618;2022-11-20T07:09:25;2.50;49.70
2749;DHT22;1382;52.142;11.618;2022-11-20T07:11:52;2.50;49.80
2749;DHT22;1382;52.142;11.618;2022-11-20T07:14:20;2.50;50.40
2749;DHT22;1382;52.142;11.618;2022-11-20T07:16:47;2.50;49.80
2749;DHT22;1382;52.142;11.618;2022-11-20T07:19:14;2.50;49.80
2749;DHT22;1382;52.142;11.618;2022-11-20T07:21:40;2.50;49.90
2749;DHT22;1382;52.142;11.618;2022-11-20T07:24:07;2.40;49.80
2749;DHT22;1382;52.142;11.618;2022-11-20T07:26:34;2.50;49.90
2749;DHT22;1382;52.142;11.618;2022-11-20T07:29:00;2.40;49.90
2749;DHT22;1382;52.142;11.618;2022-11-20T07:31:29;2.40;50.00
2749;DHT22;1382;52.142;11.618;2022-11-20T07:33:55;2.40;50.00
2749;DHT22;1382;52.142;11.618;2022-11-20T07:36:22;2.40;50.10
2749;DHT22;1382;52.142;11.618;2022-11-20T07:38:49;2.40;50.20
2749;DHT22;1382;52.142;11.618;2022-11-20T07:41:16;2.40;50.40
2749;DHT22;1382;52.142;11.618;2022-11-20T07:43:42;2.40;50.40
2749;DHT22;1382;52.142;11.618;2022-11-20T07:46:09;2.40;50.40
2749;DHT22;1382;52.142;11.618;2022-11-20T07:48:37;2.50;50.50
2749;DHT22;1382;52.142;11.618;2022-11-20T07:51:04;2.70;50.70
2749;DHT22;1382;52.142;11.618;2022-11-20T07:53:31;2.50;50.50
2749;DHT22;1382;52.142;11.618;2022-11-20T07:55:59;2.50;50.50
2749;DHT22;1382;52.142;11.618;2022-11-20T07:58:26;2.60;50.70
2749;DHT22;1382;52.142;11.618;2022-11-20T08:00:55;2.60;51.00
2749;DHT22;1382;52.142;11.618;2022-11-20T08:03:21;2.60;50.70
2749;DHT22;1382;52.142;11.618;2022-11-20T08:05:52;2.70;50.80
2749;DHT22;1382;52.142;11.618;2022-11-20T08:08:19;2.70;50.80
2749;DHT22;1382;52.142;11.618;2022-11-20T08:10:46;2.70;50.80
2749;DHT22;1382;52.142;11.618;2022-11-20T08:13:13;2.80;50.90
2749;DHT22;1382;52.142;11.618;2022-11-20T08:15:40;2.80;50.80
2749;DHT22;1382;52.142;11.618;2022-11-20T08:18:09;2.90;51.00
2749;DHT22;1382;52.142;11.618;2022-11-20T08:20:57;2.90;50.90
2749;DHT22;1382;52.142;11.618;2022-11-20T08:23:24;2.90;50.90
2749;DHT22;1382;52.142;11.618;2022-11-20T08:25:51;2.90;50.80
2749;DHT22;1382;52.142;11.618;2022-11-20T08:28:18;3.00;50.80
2749;DHT22;1382;52.142;11.618;2022-11-20T08:30:48;3.00;50.80
2749;DHT22;1382;52.142;11.618;2022-11-20T08:33:14;3.00;50.80
2749;DHT22;1382;52.142;11.618;2022-11-20T08:35:41;3.10;50.80
2749;DHT22;1382;52.142;11.618;2022-11-20T08:38:10;3.10;50.70
2749;DHT22;1382;52.142;11.618;2022-11-20T08:40:36;3.10;50.70
2749;DHT22;1382;52.142;11.618;2022-11-20T08:43:03;3.20;50.70
2749;DHT22;1382;52.142;11.618;2022-11-20T08:45:30;3.20;50.70
2749;DHT22;1382;52.142;11.618;2022-11-20T08:48:02;3.30;50.60
2749;DHT22;1382;52.142;11.618;2022-11-20T08:50:29;3.30;50.70
2749;DHT22;1382;52.142;11.618;2022-11-20T08:53:02;3.30;50.50
2749;DHT22;1382;52.142;11.618;2022-11-20T08:55:30;3.40;50.50
2749;DHT22;1382;52.142;11.618;2022-11-20T08:57:57;3.40;50.60
2749;DHT22;1382;52.142;11.618;2022-11-20T09:00:24;3.40;50.50
2749;DHT22;1382;52.142;11.618;2022-11-20T09:02:50;3.50;50.60
2749;DHT22;1382;52.142;11.618;2022-11-20T09:05:17;3.50;50.60
2749;DHT22;1382;52.142;11.618;2022-11-20T09:07:44;3.50;50.50
2749;DHT22;1382;52.142;11.618;2022-11-20T09:10:11;3.70;50.60
2749;DHT22;1382;52.142;11.618;2022-11-20T09:12:55;3.60;50.50
2749;DHT22;1382;52.142;11.618;2022-11-20T09:15:22;3.80;50.60
2749;DHT22;1382;52.142;11.618;2022-11-20T09:17:52;3.60;50.40
2749;DHT22;1382;52.142;11.618;2022-11-20T09:20:20;3.70;50.50
2749;DHT22;1382;52.142;11.618;2022-11-20T09:22:47;3.70;50.40
2749;DHT22;1382;52.142;11.618;2022-11-20T09:25:13;3.70;50.50
2749;DHT22;1382;52.142;11.618;2022-11-20T09:27:40;4.00;50.70
2749;DHT22;1382;52.142;11.618;2022-11-20T09:30:09;3.80;50.50
2749;DHT22;1382;52.142;11.618;2022-11-20T09:32:38;3.80;50.50
2749;DHT22;1382;52.142;11.618;2022-11-20T09:35:05;3.80;50.50
2749;DHT22;1382;52.142;11.618;2022-11-20T09:37:32;3.90;50.50
2749;DHT22;1382;52.142;11.618;2022-11-20T09:39:59;3.90;50.50
2749;DHT22;1382;52.142;11.618;2022-11-20T09:42:36;3.90;50.50
2749;DHT22;1382;52.142;11.618;2022-11-20T09:45:18;4.00;50.60
2749;DHT22;1382;52.142;11.618;2022-11-20T09:47:59;4.00;50.80
2749;DHT22;1382;52.142;11.618;2022-11-20T09:50:32;4.00;50.80
2749;DHT22;1382;52.142;11.618;2022-11-20T09:53:13;4.00;50.80
2749;DHT22;1382;52.142;11.618;2022-11-20T09:55:42;4.10;51.00
2749;DHT22;1382;52.142;11.618;2022-11-20T09:58:16;4.10;51.00
2749;DHT22;1382;52.142;11.618;2022-11-20T10:00:49;4.10;51.00
2749;DHT22;1382;52.142;11.618;2022-11-20T10:03:19;4.10;51.00
2749;DHT22;1382;52.142;11.618;2022-11-20T10:05:49;4.10;51.00
2749;DHT22;1382;52.142;11.618;2022-11-20T10:08:21;4.20;51.00
2749;DHT22;1382;52.142;11.618;2022-11-20T10:10:52;4.20;51.00
2749;DHT22;1382;52.142;11.618;2022-11-20T10:13:29;4.20;51.10
2749;DHT22;1382;52.142;11.618;2022-11-20T10:16:13;4.20;51.70
2749;DHT22;1382;52.142;11.618;2022-11-20T10:18:54;4.30;51.10
2749;DHT22;1382;52.142;11.618;2022-11-20T10:21:30;4.30;51.20
2749;DHT22;1382;52.142;11.618;2022-11-20T10:24:12;4.30;51.20
2749;DHT22;1382;52.142;11.618;2022-11-20T10:26:47;4.40;51.30
2749;DHT22;1382;52.142;11.618;2022-11-20T10:29:17;4.40;51.20
2749;DHT22;1382;52.142;11.618;2022-11-20T10:31:48;4.40;51.10
2749;DHT22;1382;52.142;11.618;2022-11-20T10:34:20;4.40;51.30
2749;DHT22;1382;52.142;11.618;2022-11-20T10:36:54;4.50;51.20
2749;DHT22;1382;52.142;11.618;2022-11-20T10:39:26;4.50;51.30
2749;DHT22;1382;52.142;11.618;2022-11-20T10:41:56;4.50;51.30
2749;DHT22;1382;52.142;11.618;2022-11-20T10:44:27;4.60;51.40
2749;DHT22;1382;52.142;11.618;2022-11-20T10:46:55;4.60;51.20
2749;DHT22;1382;52.142;11.618;2022-11-20T10:49:22;4.60;51.90
2749;DHT22;1382;52.142;11.618;2022-11-20T10:51:57;4.70;51.20
2749;DHT22;1382;52.142;11.618;2022-11-20T10:54:32;4.70;51.20
2749;DHT22;1382;52.142;11.618;2022-11-20T10:57:06;4.70;51.20
2749;DHT22;1382;52.142;11.618;2022-11-20T10:59:59;4.80;51.90
2749;DHT22;1382;52.142;11.618;2022-11-20T11:02:35;4.80;51.70
2749;DHT22;1382;52.142;11.618;2022-11-20T11:05:12;4.80;51.40
2749;DHT22;1382;52.142;11.618;2022-11-20T11:07:44;4.80;51.30
2749;DHT22;1382;52.142;11.618;2022-11-20T11:10:15;4.80;51.30
2749;DHT22;1382;52.142;11.618;2022-11-20T11:12:44;4.90;51.30
2749;DHT22;1382;52.142;11.618;2022-11-20T11:15:15;4.90;51.20
2749;DHT22;1382;52.142;11.618;2022-11-20T11:17:52;4.90;51.30
2749;DHT22;1382;52.142;11.618;2022-11-20T11:20:20;4.90;51.30
2749;DHT22;1382;52.142;11.618;2022-11-20T11:22:50;4.90;51.20
2749;DHT22;1382;52.142;11.618;2022-11-20T11:25:26;5.00;51.10
2749;DHT22;1382;52.142;11.618;2022-11-20T11:27:54;5.00;51.00
2749;DHT22;1382;52.142;11.618;2022-11-20T11:30:22;5.00;51.10
2749;DHT22;1382;52.142;11.618;2022-11-20T11:32:49;5.00;51.10
2749;DHT22;1382;52.142;11.618;2022-11-20T11:35:23;5.00;51.30
2749;DHT22;1382;52.142;11.618;2022-11-20T11:37:51;5.00;51.50
2749;DHT22;1382;52.142;11.618;2022-11-20T11:40:20;5.00;52.10
2749;DHT22;1382;52.142;11.618;2022-11-20T11:42:55;5.10;52.00
2749;DHT22;1382;52.142;11.618;2022-11-20T11:45:23;5.20;51.70
2749;DHT22;1382;52.142;11.618;2022-11-20T11:47:52;5.20;51.40
2749;DHT22;1382;52.142;11.618;2022-11-20T11:50:22;5.20;51.10
2749;DHT22;1382;52.142;11.618;2022-11-20T11:52:56;5.20;51.20
2749;DHT22;1382;52.142;11.618;2022-11-20T11:55:31;5.20;51.30
2749;DHT22;1382;52.142;11.618;2022-11-20T11:58:12;5.20;51.50
2749;DHT22;1382;52.142;11.618;2022-11-20T12:00:47;5.20;51.40
2749;DHT22;1382;52.142;11.618;2022-11-20T12:03:19;5.20;51.50
2749;DHT22;1382;52.142;11.618;2022-11-20T12:05:58;5.20;51.40
2749;DHT22;1382;52.142;11.618;2022-11-20T12:08:31;5.30;51.50
2749;DHT22;1382;52.142;11.618;2022-11-20T12:11:04;5.30;51.60
2749;DHT22;1382;52.142;11.618;2022-11-20T12:13:42;5.30;51.30
2749;DHT22;1382;52.142;11.618;2022-11-20T12:16:13;5.50;51.40
2749;DHT22;1382;52.142;11.618;2022-11-20T12:18:41;5.30;51.40
2749;DHT22;1382;52.142;11.618;2022-11-20T12:21:19;5.30;51.40
2749;DHT22;1382;52.142;11.618;2022-11-20T12:23:57;5.40;51.40
2749;DHT22;1382;52.142;11.618;2022-11-20T12:26:35;5.40;51.50
2749;DHT22;1382;52.142;11.618;2022-11-20T12:29:11;5.40;51.60
2749;DHT22;1382;52.142;11.618;2022-11-20T12:31:52;5.50;51.80
2749;DHT22;1382;52.142;11.618;2022-11-20T12:34:40;5.50;51.90
2749;DHT22;1382;52.142;11.618;2022-11-20T12:37:19;5.60;51.90
2749;DHT22;1382;52.142;11.618;2022-11-20T12:39:48;5.70;52.10
2749;DHT22;1382;52.142;11.618;2022-11-20T12:42:36;5.70;52.00
2749;DHT22;1382;52.142;11.618;2022-11-20T12:45:22;5.80;52.00
2749;DHT22;1382;52.142;11.618;2022-11-20T12:48:09;5.80;51.90
2749;DHT22;1382;52.142;11.618;2022-11-20T12:50:48;5.90;52.20
2749;DHT22;1382;52.142;11.618;2022-11-20T12:53:42;6.00;51.90
2749;DHT22;1382;52.142;11.618;2022-11-20T12:56:21;6.00;51.80
2749;DHT22;1382;52.142;11.618;2022-11-20T12:59:01;6.10;51.70
2749;DHT22;1382;52.142;11.618;2022-11-20T13:01:35;6.10;51.60
2749;DHT22;1382;52.142;11.618;2022-11-20T13:04:13;6.30;51.80
2749;DHT22;1382;52.142;11.618;2022-11-20T13:06:44;6.20;51.60
2749;DHT22;1382;52.142;11.618;2022-11-20T13:09:14;6.30;51.60
2749;DHT22;1382;52.142;11.618;2022-11-20T13:11:45;6.30;51.50
2749;DHT22;1382;52.142;11.618;2022-11-20T13:14:24;6.40;51.50
2749;DHT22;1382;52.142;11.618;2022-11-20T13:16:56;6.40;51.20
2749;DHT22;1382;52.142;11.618;2022-11-20T13:19:31;6.40;51.00
2749;DHT22;1382;52.142;11.618;2022-11-20T13:21:58;6.40;51.10
2749;DHT22;1382;52.142;11.618;2022-11-20T13:24:28;6.40;51.00
2749;DHT22;1382;52.142;11.618;2022-11-20T13:27:18;6.50;50.90
2749;DHT22;1382;52.142;11.618;2022-11-20T13:29:46;6.50;50.80
2749;DHT22;1382;52.142;11.618;2022-11-20T13:32:15;6.50;51.00
2749;DHT22;1382;52.142;11.618;2022-11-20T13:34:52;6.50;50.80
2749;DHT22;1382;52.142;11.618;2022-11-20T13:37:26;6.50;50.70
2749;DHT22;1382;52.142;11.618;2022-11-20T13:40:05;6.50;50.70
2749;DHT22;1382;52.142;11.618;2022-11-20T13:42:35;6.50;50.60
2749;DHT22;1382;52.142;11.618;2022-11-20T13:45:10;6.50;50.70
2749;DHT22;1382;52.142;11.618;2022-11-20T13:47:37;6.50;50.90
2749;DHT22;1382;52.142;11.618;2022-11-20T13:50:14;6.50;50.80
2749;DHT22;1382;52.142;11.618;2022-11-20T13:52:48;6.50;50.70
2749;DHT22;1382;52.142;11.618;2022-11-20T13:55:25;6.50;50.60
2749;DHT22;1382;52.142;11.618;2022-11-20T13:58:12;6.50;50.60
2749;DHT22;1382;52.142;11.618;2022-11-20T14:00:44;6.40;50.50
2749;DHT22;1382;52.142;11.618;2022-11-20T14:03:18;6.40;50.60
2749;DHT22;1382;52.142;11.618;2022-11-20T14:06:11;6.30;50.60
2749;DHT22;1382;52.142;11.618;2022-11-20T14:08:42;6.30;50.80
2749;DHT22;1382;52.142;11.618;2022-11-20T14:11:16;6.30;50.80
2749;DHT22;1382;52.142;11.618;2022-11-20T14:13:55;6.30;50.80
2749;DHT22;1382;52.142;11.618;2022-11-20T14:16:22;6.30;50.80
2749;DHT22;1382;52.142;11.618;2022-11-20T14:18:50;6.30;51.00
2749;DHT22;1382;52.142;11.618;2022-11-20T14:21:25;6.30;50.90
2749;DHT22;1382;52.142;11.618;2022-11-20T14:23:53;6.40;50.70
2749;DHT22;1382;52.142;11.618;2022-11-20T14:26:21;6.30;50.60
2749;DHT22;1382;52.142;11.618;2022-11-20T14:28:49;6.20;50.50
2749;DHT22;1382;52.142;11.618;2022-11-20T14:31:22;6.20;50.60
2749;DHT22;1382;52.142;11.618;2022-11-20T14:33:51;6.10;50.80
2749;DHT22;1382;52.142;11.618;2022-11-20T14:36:20;6.10;51.00
2749;DHT22;1382;52.142;11.618;2022-11-20T14:38:47;6.10;51.10
2749;DHT22;1382;52.142;11.618;2022-11-20T14:41:19;6.00;51.00
2749;DHT22;1382;52.142;11.618;2022-11-20T14:43:51;6.00;51.10
2749;DHT22;1382;52.142;11.618;2022-11-20T14:46:19;6.00;51.20
2749;DHT22;1382;52.142;11.618;2022-11-20T14:48:48;6.00;51.20
2749;DHT22;1382;52.142;11.618;2022-11-20T14:51:31;6.00;51.20
2749;DHT22;1382;52.142;11.618;2022-11-20T14:54:08;6.10;51.10
2749;DHT22;1382;52.142;11.618;2022-11-20T14:56:35;6.10;51.50
2749;DHT22;1382;52.142;11.618;2022-11-20T14:59:04;6.10;51.30
2749;DHT22;1382;52.142;11.618;2022-11-20T15:01:32;6.10;51.20
2749;DHT22;1382;52.142;11.618;2022-11-20T15:04:01;6.10;51.10
2749;DHT22;1382;52.142;11.618;2022-11-20T15:06:28;6.10;51.10
2749;DHT22;1382;52.142;11.618;2022-11-20T15:08:55;6.10;51.00
2749;DHT22;1382;52.142;11.618;2022-11-20T15:11:28;6.10;50.90
2749;DHT22;1382;52.142;11.618;2022-11-20T15:13:55;6.10;50.90
2749;DHT22;1382;52.142;11.618;2022-11-20T15:16:24;6.10;50.80
2749;DHT22;1382;52.142;11.618;2022-11-20T15:18:51;6.10;50.80
2749;DHT22;1382;52.142;11.618;2022-11-20T15:21:19;6.10;50.80
2749;DHT22;1382;52.142;11.618;2022-11-20T15:23:46;6.10;50.70
2749;DHT22;1382;52.142;11.618;2022-11-20T15:26:15;6.10;50.70
2749;DHT22;1382;52.142;11.618;2022-11-20T15:28:47;6.10;50.60
2749;DHT22;1382;52.142;11.618;2022-11-20T15:31:15;6.10;50.60
2749;DHT22;1382;52.142;11.618;2022-11-20T15:33:50;6.00;50.50
2749;DHT22;1382;52.142;11.618;2022-11-20T15:36:17;6.00;50.40
2749;DHT22;1382;52.142;11.618;2022-11-20T15:38:44;6.00;50.40
2749;DHT22;1382;52.142;11.618;2022-11-20T15:41:11;6.00;50.40
2749;DHT22;1382;52.142;11.618;2022-11-20T15:43:38;5.90;51.00
2749;DHT22;1382;52.142;11.618;2022-11-20T15:46:08;5.90;50.40
2749;DHT22;1382;52.142;11.618;2022-11-20T15:48:38;5.90;50.30
2749;DHT22;1382;52.142;11.618;2022-11-20T15:51:21;5.90;50.40
2749;DHT22;1382;52.142;11.618;2022-11-20T15:53:51;5.80;50.30
2749;DHT22;1382;52.142;11.618;2022-11-20T15:56:17;5.80;50.40
2749;DHT22;1382;52.142;11.618;2022-11-20T15:58:44;5.80;51.10
2749;DHT22;1382;52.142;11.618;2022-11-20T16:01:11;5.70;50.30
2749;DHT22;1382;52.142;11.618;2022-11-20T16:03:39;5.80;50.40
2749;DHT22;1382;52.142;11.618;2022-11-20T16:06:06;5.70;50.30
2749;DHT22;1382;52.142;11.618;2022-11-20T16:08:34;5.60;50.30
2749;DHT22;1382;52.142;11.618;2022-11-20T16:11:01;5.60;50.30
2749;DHT22;1382;52.142;11.618;2022-11-20T16:13:28;5.60;50.30
2749;DHT22;1382;52.142;11.618;2022-11-20T16:15:58;5.60;50.30
2749;DHT22;1382;52.142;11.618;2022-11-20T16:18:26;5.60;50.30